Time;durP1;ratioP1;P1;durP2;ratioP2;P2;SDS_P1;SDS_P2;PMS_P1;PMS_P2;Temp;Humidity;BMP_temperature;BMP_pressure;BME280_temperature;BME280_humidity;BME280_pressure;Samples;Min_cycle;Max_cycle;Signal;HPM_P1;HPM_P2
2023/01/13 00:00:09;;;;;;;29.63;15.77;;;18.00;49.50;;;;;;5052035;28;20261;-53
2023/01/13 00:02:39;;;;;;;28.90;17.17;;;18.00;49.40;;;;;;5053549;28;20176;-54
2023/01/13 00:05:08;;;;;;;24.50;13.60;;;18.00;49.70;;;;;;5052053;28;20666;-53
2023/01/13 00:07:37;;;;;;;26.63;14.30;;;18.00;49.70;;;;;;5052100;28;20223;-53
2023/01/13 00:10:07;;;;;;;25.55;14.95;;;18.00;49.70;;;;;;5053342;28;20187;-53
2023/01/13 00:12:34;;;;;;;24.42;14.98;;;18.00;49.90;;;;;;5053533;28;20180;-52
2023/01/13 00:15:01;;;;;;;27.63;15.02;;;18.00;50.10;;;;;;5053400;28;20211;-52
2023/01/13 00:17:28;;;;;;;24.10;13.38;;;18.00;50.00;;;;;;5052023;28;20302;-53
2023/01/13 00:19:56;;;;;;;27.10;15.20;;;17.90;49.50;;;;;;5053177;28;20560;-53
2023/01/13 00:22:23;;;;;;;24.58;14.45;;;17.90;49.80;;;;;;5053165;28;20199;-52
2023/01/13 00:24:50;;;;;;;22.73;13.68;;;17.90;49.90;;;;;;5053069;28;20188;-53
2023/01/13 00:27:18;;;;;;;22.50;12.95;;;17.90;49.80;;;;;;5051861;28;20211;-53
2023/01/13 00:29:45;;;;;;;22.27;13.10;;;17.90;49.70;;;;;;5053172;28;20191;-53
2023/01/13 00:32:13;;;;;;;22.92;13.60;;;17.90;49.60;;;;;;5051654;28;20231;-53
2023/01/13 00:34:40;;;;;;;24.67;14.07;;;17.90;50.00;;;;;;5051874;28;20226;-53
2023/01/13 00:37:07;;;;;;;22.63;12.80;;;17.90;49.90;;;;;;5050728;28;20218;-53
2023/01/13 00:39:34;;;;;;;24.63;13.80;;;17.90;49.60;;;;;;5053042;28;20188;-53
2023/01/13 00:44:48;;;;;;;21.65;11.27;;;17.90;49.50;;;;;;5053122;28;20609;-53
2023/01/13 00:47:15;;;;;;;22.08;12.70;;;17.80;49.40;;;;;;5051572;28;20215;-53
2023/01/13 00:49:42;;;;;;;20.08;12.00;;;17.80;49.50;;;;;;5051587;28;20249;-53
2023/01/13 00:52:10;;;;;;;18.92;12.18;;;17.80;49.90;;;;;;5052914;28;20195;-53
2023/01/13 00:54:37;;;;;;;17.80;11.73;;;17.80;49.40;;;;;;5051596;28;20268;-53
2023/01/13 00:57:04;;;;;;;20.70;11.43;;;17.80;49.50;;;;;;5054851;28;20211;-53
2023/01/13 00:59:31;;;;;;;20.85;11.27;;;17.80;49.40;;;;;;5053162;28;20203;-54
2023/01/13 01:02:00;;;;;;;18.85;11.63;;;17.80;49.30;;;;;;5052969;28;20189;-55
2023/01/13 01:04:27;;;;;;;19.90;11.75;;;17.80;49.80;;;;;;5053933;28;20321;-53
2023/01/13 01:06:54;;;;;;;18.85;11.48;;;17.80;49.60;;;;;;5056071;28;20218;-53
2023/01/13 01:09:21;;;;;;;19.30;11.48;;;17.70;49.60;;;;;;5056897;28;20188;-54
2023/01/13 01:11:48;;;;;;;17.52;11.18;;;17.70;49.40;;;;;;5052353;28;20205;-52
2023/01/13 01:14:15;;;;;;;19.70;11.68;;;17.70;49.50;;;;;;5053139;28;20212;-53
2023/01/13 01:16:42;;;;;;;20.55;12.13;;;17.70;49.70;;;;;;5051936;28;20234;-53
2023/01/13 01:19:10;;;;;;;20.58;11.45;;;17.70;49.90;;;;;;5051667;28;20257;-53
2023/01/13 01:21:37;;;;;;;18.33;11.07;;;17.70;49.50;;;;;;5051744;28;20576;-53
2023/01/13 01:24:05;;;;;;;21.85;13.02;;;17.70;49.50;;;;;;5051727;28;20198;-53
2023/01/13 01:26:32;;;;;;;16.48;10.25;;;17.70;50.00;;;;;;5051716;28;20234;-53
2023/01/13 01:29:00;;;;;;;16.85;11.10;;;17.60;49.70;;;;;;5052978;28;20183;-52
2023/01/13 01:31:30;;;;;;;18.90;11.23;;;17.70;49.80;;;;;;5053124;28;20190;-53
2023/01/13 01:33:57;;;;;;;20.35;11.20;;;17.70;49.90;;;;;;5052686;28;20282;-53
2023/01/13 01:36:27;;;;;;;15.95;10.18;;;17.70;49.80;;;;;;5052663;28;20560;-53
2023/01/13 01:38:55;;;;;;;16.58;10.00;;;17.70;49.70;;;;;;5051834;28;20195;-53
2023/01/13 01:41:24;;;;;;;17.35;9.98;;;17.60;49.60;;;;;;5051358;28;20230;-53
2023/01/13 01:43:58;;;;;;;17.50;9.90;;;17.70;49.80;;;;;;5052784;28;20633;-54
2023/01/13 01:46:26;;;;;;;17.50;10.40;;;17.60;49.70;;;;;;5052506;28;20213;-53
2023/01/13 01:48:54;;;;;;;15.02;10.00;;;17.60;49.90;;;;;;5052884;28;20199;-53
2023/01/13 01:51:21;;;;;;;15.02;10.10;;;17.60;49.70;;;;;;5055377;28;20202;-53
2023/01/13 01:53:50;;;;;;;14.77;9.50;;;17.60;49.90;;;;;;5055007;28;20199;-52
2023/01/13 01:56:18;;;;;;;18.50;10.90;;;17.60;49.70;;;;;;5054899;28;20199;-53
2023/01/13 01:58:47;;;;;;;16.13;10.20;;;17.60;50.10;;;;;;5056406;28;20194;-52
2023/01/13 02:01:14;;;;;;;18.20;10.82;;;17.60;50.10;;;;;;5054776;28;20688;-53
2023/01/13 02:03:43;;;;;;;17.25;9.88;;;17.60;50.10;;;;;;5054809;28;20226;-53
2023/01/13 02:06:10;;;;;;;15.80;9.90;;;17.60;50.00;;;;;;5054705;28;20739;-53
2023/01/13 02:08:38;;;;;;;17.13;9.80;;;17.60;50.20;;;;;;5054868;28;20202;-53
2023/01/13 02:12:28;;;;;;;13.23;8.45;;;17.60;51.00;;;;;;5056002;28;20188;-53
2023/01/13 02:13:53;;;;;;;15.73;9.48;;;17.60;50.10;;;;;;5054345;28;20207;-53
2023/01/13 02:16:23;;;;;;;15.38;9.80;;;17.60;50.00;;;;;;5054529;28;20227;-53
2023/01/13 02:18:54;;;;;;;14.32;9.23;;;17.60;50.40;;;;;;5055941;28;20198;-53
2023/01/13 02:21:47;;;;;;;18.73;10.52;;;17.50;50.20;;;;;;5055987;28;20167;-53
2023/01/13 02:24:52;;;;;;;15.52;9.68;;;17.60;50.50;;;;;;5054304;28;20210;-53
2023/01/13 02:27:49;;;;;;;14.73;9.52;;;17.60;50.50;;;;;;5055739;28;20219;-53
2023/01/13 02:33:13;;;;;;;15.57;9.60;;;17.50;50.00;;;;;;5054214;28;20192;-53
2023/01/13 02:35:45;;;;;;;14.10;8.68;;;17.60;50.50;;;;;;5055901;28;20246;-52
2023/01/13 02:38:13;;;;;;;17.08;9.68;;;17.50;50.10;;;;;;5055922;28;20223;-53
2023/01/13 02:40:42;;;;;;;14.80;9.60;;;17.50;50.30;;;;;;5054695;28;20711;-54
2023/01/13 02:46:00;;;;;;;13.25;8.15;;;17.50;50.50;;;;;;5055804;28;20186;-54
2023/01/13 02:48:28;;;;;;;13.02;8.57;;;17.50;50.20;;;;;;5054430;28;20234;-53
2023/01/13 02:50:56;;;;;;;14.65;8.88;;;17.50;50.30;;;;;;5055938;28;20187;-53
2023/01/13 02:53:26;;;;;;;13.98;9.10;;;17.50;50.30;;;;;;5054614;28;20203;-53
2023/01/13 02:55:53;;;;;;;13.82;8.38;;;17.50;50.00;;;;;;5053925;28;20211;-53
2023/01/13 02:58:22;;;;;;;14.52;8.38;;;17.50;50.00;;;;;;5055265;28;20211;-53
2023/01/13 03:00:49;;;;;;;15.00;8.40;;;17.50;50.30;;;;;;5052777;28;20219;-53
2023/01/13 03:03:18;;;;;;;16.42;9.65;;;17.50;50.10;;;;;;5053700;28;20191;-53
2023/01/13 03:05:46;;;;;;;11.95;8.27;;;17.50;50.60;;;;;;5054828;28;20267;-53
2023/01/13 03:08:22;;;;;;;14.18;8.65;;;17.50;51.00;;;;;;5054846;28;20261;-53
2023/01/13 03:11:02;;;;;;;13.57;8.40;;;17.50;50.40;;;;;;5053708;28;20226;-53
2023/01/13 03:13:46;;;;;;;13.30;8.40;;;17.50;50.70;;;;;;5053484;28;20187;-53
2023/01/13 03:16:17;;;;;;;14.40;8.77;;;17.50;50.70;;;;;;5054813;28;20199;-53
2023/01/13 03:18:50;;;;;;;14.02;8.85;;;17.50;50.70;;;;;;5053256;28;20206;-53
2023/01/13 03:21:20;;;;;;;12.88;9.02;;;17.50;51.00;;;;;;5054874;28;20184;-53
2023/01/13 03:23:50;;;;;;;13.15;8.85;;;17.50;51.00;;;;;;5053136;28;20242;-53
2023/01/13 03:26:19;;;;;;;14.05;8.70;;;17.50;51.00;;;;;;5054863;28;20191;-53
2023/01/13 03:28:48;;;;;;;12.57;8.57;;;17.40;50.90;;;;;;5054784;28;20191;-53
2023/01/13 03:31:17;;;;;;;12.77;7.93;;;17.40;50.80;;;;;;5054728;28;20562;-54
2023/01/13 03:33:48;;;;;;;14.68;8.95;;;17.40;50.80;;;;;;5053230;28;20203;-53
2023/01/13 03:36:16;;;;;;;12.63;8.45;;;17.40;51.00;;;;;;5054114;28;20202;-53
2023/01/13 03:38:44;;;;;;;11.10;8.15;;;17.40;51.00;;;;;;5054192;28;20192;-53
2023/01/13 03:41:13;;;;;;;12.65;8.25;;;17.40;50.80;;;;;;5054178;28;20621;-53
2023/01/13 03:46:29;;;;;;;11.18;7.68;;;17.40;50.90;;;;;;5054076;28;20207;-53
2023/01/13 03:48:58;;;;;;;12.82;8.20;;;17.40;50.80;;;;;;5054054;28;20191;-53
2023/01/13 03:51:25;;;;;;;11.77;8.80;;;17.40;50.80;;;;;;5052506;28;20202;-52
2023/01/13 03:53:54;;;;;;;12.57;7.45;;;17.40;51.00;;;;;;5053846;28;20195;-53
2023/01/13 03:56:24;;;;;;;10.50;7.47;;;17.40;51.00;;;;;;5053883;28;20234;-53
2023/01/13 03:58:51;;;;;;;13.57;8.55;;;17.40;51.10;;;;;;5054155;28;20218;-53
2023/01/13 04:01:20;;;;;;;10.63;6.85;;;17.40;51.10;;;;;;5052555;28;20206;-53
2023/01/13 04:03:50;;;;;;;11.07;8.20;;;17.40;50.80;;;;;;5053587;28;20226;-53
2023/01/13 04:06:31;;;;;;;10.55;7.28;;;17.40;51.00;;;;;;5053798;28;20189;-53
2023/01/13 04:09:02;;;;;;;12.68;8.07;;;17.30;51.30;;;;;;5052457;28;20188;-53
2023/01/13 04:11:31;;;;;;;9.18;6.43;;;17.40;51.00;;;;;;5054592;28;20254;-53
2023/01/13 04:13:57;;;;;;;12.07;7.30;;;17.40;51.20;;;;;;5054231;28;20215;-53
2023/01/13 04:16:25;;;;;;;11.85;7.90;;;17.30;51.10;;;;;;5053384;28;20215;-53
2023/01/13 04:18:52;;;;;;;10.52;6.82;;;17.30;51.20;;;;;;5052304;28;20274;-53
2023/01/13 04:21:20;;;;;;;10.27;7.15;;;17.30;51.30;;;;;;5053663;28;20274;-53
2023/01/13 04:23:50;;;;;;;10.10;6.53;;;17.30;51.30;;;;;;5053322;28;20565;-53
2023/01/13 04:26:18;;;;;;;10.80;7.55;;;17.30;51.00;;;;;;5053583;28;20191;-52
2023/01/13 04:28:45;;;;;;;10.18;6.35;;;17.40;51.20;;;;;;5051895;28;20207;-52
2023/01/13 04:31:12;;;;;;;9.10;6.60;;;17.40;51.00;;;;;;5051777;28;20191;-53
2023/01/13 04:33:40;;;;;;;10.07;6.93;;;17.40;50.90;;;;;;5051891;28;20195;-53
2023/01/13 04:36:07;;;;;;;12.55;7.55;;;17.40;50.70;;;;;;5053008;28;20208;-53
2023/01/13 04:38:35;;;;;;;9.05;6.38;;;17.40;50.90;;;;;;5053093;28;20191;-53
2023/01/13 04:41:03;;;;;;;10.55;6.80;;;17.50;50.60;;;;;;5052963;28;20200;-53
2023/01/13 04:43:29;;;;;;;9.95;6.65;;;17.50;50.40;;;;;;5053097;28;20218;-53
2023/01/13 04:45:56;;;;;;;8.30;6.07;;;17.50;50.40;;;;;;5053044;28;20183;-53
2023/01/13 04:48:23;;;;;;;7.72;5.88;;;17.60;50.30;;;;;;5053140;28;20237;-53
2023/01/13 04:50:50;;;;;;;8.60;6.03;;;17.60;50.00;;;;;;5052955;28;20187;-53
2023/01/13 04:53:17;;;;;;;9.32;5.85;;;17.60;50.00;;;;;;5053177;28;20183;-53
2023/01/13 04:55:48;;;;;;;8.13;5.55;;;17.70;50.00;;;;;;5051679;28;20223;-53
2023/01/13 04:58:15;;;;;;;8.38;6.00;;;17.70;49.80;;;;;;5053145;28;20231;-52
2023/01/13 05:00:43;;;;;;;8.40;5.93;;;17.70;49.90;;;;;;5053037;28;20191;-53
2023/01/13 05:03:10;;;;;;;7.18;5.30;;;17.70;49.70;;;;;;5051625;28;20206;-53
2023/01/13 05:05:37;;;;;;;7.95;5.82;;;17.70;49.60;;;;;;5051878;28;20676;-53
2023/01/13 05:08:04;;;;;;;9.93;6.60;;;17.80;49.80;;;;;;5052908;28;20211;-53
2023/01/13 05:10:31;;;;;;;9.27;6.45;;;17.80;49.80;;;;;;5053399;28;20679;-53
2023/01/13 05:18:44;;;;;;;8.23;5.65;;;17.80;49.90;;;;;;4991568;28;20232;-53
2023/01/13 05:25:20;;;;;;;6.85;5.55;;;17.80;50.50;;;;;;4991509;28;20569;-53
2023/01/13 05:26:43;;;;;;;8.35;5.55;;;17.70;49.70;;;;;;5055406;28;20243;-53
2023/01/13 05:29:11;;;;;;;9.13;5.53;;;17.80;50.00;;;;;;5056435;28;20213;-53
2023/01/13 05:31:38;;;;;;;8.60;5.50;;;17.80;49.90;;;;;;5056753;28;20191;-51
2023/01/13 05:34:06;;;;;;;8.18;5.75;;;17.80;49.80;;;;;;5055094;28;20290;-51
2023/01/13 05:36:33;;;;;;;7.57;5.47;;;17.80;49.60;;;;;;5056295;28;20218;-52
2023/01/13 05:39:00;;;;;;;7.78;5.60;;;17.80;49.90;;;;;;5055222;28;20195;-52
2023/01/13 05:44:14;;;;;;;8.50;5.70;;;17.90;50.60;;;;;;5056390;28;20195;-51
2023/01/13 05:46:41;;;;;;;7.25;5.57;;;17.80;50.00;;;;;;5056301;28;20211;-52
2023/01/13 05:49:08;;;;;;;8.50;5.75;;;17.80;49.80;;;;;;5056059;28;20184;-51
2023/01/13 05:51:35;;;;;;;6.13;4.68;;;17.80;49.70;;;;;;5054613;28;20749;-51
2023/01/13 05:54:02;;;;;;;6.40;4.85;;;17.80;49.70;;;;;;5056077;28;20192;-51
2023/01/13 05:56:29;;;;;;;8.55;5.88;;;17.80;49.50;;;;;;5056314;28;20219;-51
2023/01/13 05:58:56;;;;;;;6.35;4.80;;;17.90;49.50;;;;;;5055978;28;20266;-51
2023/01/13 06:01:24;;;;;;;6.82;5.07;;;17.80;49.30;;;;;;5056792;28;20195;-52
2023/01/13 06:03:52;;;;;;;7.45;4.95;;;17.90;49.60;;;;;;5058166;28;20661;-52
2023/01/13 06:06:19;;;;;;;6.97;4.88;;;17.90;49.30;;;;;;5057763;28;20699;-53
2023/01/13 06:08:46;;;;;;;7.60;5.05;;;17.90;49.10;;;;;;5054769;28;20192;-52
2023/01/13 06:11:14;;;;;;;6.45;4.32;;;18.00;49.10;;;;;;5056020;28;20219;-51
2023/01/13 06:13:41;;;;;;;6.57;4.88;;;18.00;49.20;;;;;;5055875;28;20223;-53
2023/01/13 06:16:09;;;;;;;5.57;4.47;;;18.00;49.50;;;;;;5055562;28;20208;-52
2023/01/13 06:18:38;;;;;;;5.50;4.22;;;18.00;49.40;;;;;;5055621;28;20192;-52
2023/01/13 06:21:05;;;;;;;6.45;4.85;;;18.00;49.70;;;;;;5055441;28;20226;-51
2023/01/13 06:23:33;;;;;;;5.80;4.07;;;18.00;50.00;;;;;;5055516;28;20197;-52
2023/01/13 06:26:04;;;;;;;5.88;4.43;;;18.00;50.20;;;;;;5055238;28;20198;-52
2023/01/13 06:28:32;;;;;;;6.82;4.72;;;18.00;50.10;;;;;;5055446;28;20186;-51
2023/01/13 06:31:02;;;;;;;6.50;4.15;;;18.00;50.00;;;;;;5055670;28;20198;-52
2023/01/13 06:33:30;;;;;;;7.07;4.30;;;18.00;50.40;;;;;;5055893;28;20183;-52
2023/01/13 06:35:59;;;;;;;4.85;4.07;;;18.00;50.00;;;;;;5055217;28;20711;-52
2023/01/13 06:38:27;;;;;;;4.78;4.05;;;18.00;50.10;;;;;;5055423;28;20703;-52
2023/01/13 06:40:54;;;;;;;5.65;4.30;;;18.00;50.10;;;;;;5054176;28;20191;-52
2023/01/13 06:43:20;;;;;;;5.95;4.13;;;18.10;50.20;;;;;;5055139;28;20191;-51
2023/01/13 06:45:49;;;;;;;5.80;4.00;;;18.00;50.00;;;;;;5055391;28;20190;-51
2023/01/13 06:48:17;;;;;;;5.07;3.83;;;18.10;50.20;;;;;;5054925;28;20283;-52
2023/01/13 06:50:44;;;;;;;6.20;4.50;;;18.10;50.00;;;;;;5055306;28;20255;-52
2023/01/13 06:53:12;;;;;;;5.38;4.20;;;18.00;50.00;;;;;;5053937;28;20626;-53
2023/01/13 06:55:40;;;;;;;4.65;3.88;;;18.10;49.80;;;;;;5053665;28;20233;-52
2023/01/13 06:58:07;;;;;;;5.10;3.80;;;18.10;49.80;;;;;;5055260;28;20230;-52
2023/01/13 07:00:35;;;;;;;6.22;3.83;;;18.10;50.20;;;;;;5053705;28;20192;-52
2023/01/13 07:03:10;;;;;;;5.90;4.40;;;18.10;50.20;;;;;;5055177;28;20195;-53
2023/01/13 07:05:37;;;;;;;5.50;3.70;;;18.10;50.80;;;;;;5054758;28;20553;-52
2023/01/13 07:08:04;;;;;;;5.43;3.60;;;18.10;50.40;;;;;;5053424;28;20314;-53
2023/01/13 07:10:33;;;;;;;5.07;4.22;;;18.20;50.20;;;;;;5054752;28;20195;-52
2023/01/13 07:15:54;;;;;;;5.80;3.63;;;18.30;50.00;;;;;;5054997;28;20206;-52
2023/01/13 07:18:21;;;;;;;4.72;3.80;;;18.30;49.70;;;;;;5053360;28;20226;-53
2023/01/13 07:20:52;;;;;;;5.20;3.53;;;18.30;49.80;;;;;;5055194;28;20555;-52
2023/01/13 07:23:19;;;;;;;5.25;3.78;;;18.40;49.60;;;;;;5054861;28;20650;-52
2023/01/13 07:25:49;;;;;;;5.70;3.85;;;18.40;49.40;;;;;;5053062;28;20207;-52
2023/01/13 07:28:16;;;;;;;4.95;3.53;;;18.40;49.60;;;;;;5054437;28;20758;-52
2023/01/13 07:30:43;;;;;;;6.38;3.90;;;18.40;49.10;;;;;;5054354;28;20187;-52
2023/01/13 07:33:10;;;;;;;7.45;4.22;;;18.40;49.30;;;;;;5054262;28;20195;-52
2023/01/13 07:35:38;;;;;;;6.00;4.10;;;18.40;49.40;;;;;;5052803;28;20229;-52
2023/01/13 07:38:05;;;;;;;5.15;3.72;;;18.40;49.30;;;;;;5054194;28;20219;-52
2023/01/13 07:40:32;;;;;;;5.93;4.18;;;18.30;49.20;;;;;;5052856;28;20203;-52
2023/01/13 07:45:45;;;;;;;6.97;4.13;;;18.30;49.10;;;;;;5053759;28;20560;-52
2023/01/13 07:48:12;;;;;;;5.53;4.10;;;18.30;49.20;;;;;;5052415;28;20219;-52
2023/01/13 07:50:39;;;;;;;5.60;3.63;;;18.30;49.00;;;;;;5054366;28;20233;-52
2023/01/13 07:53:06;;;;;;;4.05;3.28;;;18.30;49.00;;;;;;5053974;28;20199;-52
2023/01/13 07:55:33;;;;;;;3.88;3.40;;;18.30;48.90;;;;;;5053742;28;20210;-52
2023/01/13 07:58:02;;;;;;;5.43;3.42;;;18.30;48.80;;;;;;5053954;28;20557;-52
2023/01/13 08:00:29;;;;;;;4.32;3.25;;;18.30;49.00;;;;;;5053930;28;20187;-52
2023/01/13 08:02:56;;;;;;;5.03;3.53;;;18.30;48.90;;;;;;5052678;28;20673;-53
2023/01/13 08:05:24;;;;;;;4.13;3.15;;;18.30;49.10;;;;;;5053961;28;20650;-52
2023/01/13 08:07:50;;;;;;;4.85;3.30;;;18.30;49.20;;;;;;5053800;28;20214;-52
2023/01/13 08:10:18;;;;;;;4.35;3.17;;;18.30;48.90;;;;;;5054033;28;20266;-52
2023/01/13 08:15:33;;;;;;;4.28;3.47;;;18.30;48.90;;;;;;5052625;28;20190;-52
2023/01/13 08:18:00;;;;;;;4.63;3.28;;;18.30;48.90;;;;;;5053837;28;20218;-52
2023/01/13 08:20:27;;;;;;;4.55;3.22;;;18.30;48.90;;;;;;5052625;28;20195;-52
2023/01/13 08:22:56;;;;;;;5.03;3.65;;;18.30;48.80;;;;;;5053499;28;20191;-52
2023/01/13 08:25:24;;;;;;;4.00;2.95;;;18.40;49.00;;;;;;5053291;28;20199;-52
2023/01/13 08:27:51;;;;;;;5.32;3.45;;;18.40;49.00;;;;;;5052082;28;20257;-52
2023/01/13 08:30:18;;;;;;;4.30;3.00;;;18.40;49.00;;;;;;5053546;28;20219;-51
2023/01/13 08:32:47;;;;;;;5.15;3.17;;;18.40;49.00;;;;;;5052278;28;20210;-52
2023/01/13 08:35:14;;;;;;;5.15;3.42;;;18.40;49.60;;;;;;5053739;28;20211;-51
2023/01/13 08:37:41;;;;;;;5.00;3.00;;;18.40;49.00;;;;;;5051838;28;20227;-52
2023/01/13 08:40:09;;;;;;;6.10;3.33;;;18.50;49.00;;;;;;5052102;28;20269;-52
2023/01/13 08:42:36;;;;;;;5.13;3.42;;;18.50;49.00;;;;;;5052629;28;20575;-52
2023/01/13 08:45:04;;;;;;;4.78;3.30;;;18.50;49.90;;;;;;5053532;28;20653;-52
2023/01/13 08:47:32;;;;;;;7.70;3.80;;;18.50;49.60;;;;;;5053234;28;20211;-52
2023/01/13 08:50:00;;;;;;;5.40;3.53;;;18.50;49.80;;;;;;5052013;28;20192;-52
2023/01/13 08:52:27;;;;;;;6.32;3.63;;;18.50;50.00;;;;;;5053304;28;20195;-52
2023/01/13 08:54:54;;;;;;;7.63;3.85;;;18.50;50.00;;;;;;5051897;28;20203;-52
2023/01/13 08:57:21;;;;;;;5.80;3.60;;;18.50;50.50;;;;;;5051658;28;20233;-52
2023/01/13 08:59:48;;;;;;;5.93;3.28;;;18.50;50.10;;;;;;5054829;28;20199;-52
2023/01/13 09:02:19;;;;;;;6.10;3.35;;;18.50;50.20;;;;;;5057243;28;20207;-52
2023/01/13 09:04:46;;;;;;;8.32;3.67;;;18.50;50.30;;;;;;5055848;28;20526;-55
2023/01/13 09:07:14;;;;;;;6.70;4.00;;;18.50;50.50;;;;;;5055727;28;20246;-52
2023/01/13 09:09:42;;;;;;;6.68;3.45;;;18.50;50.60;;;;;;5055607;28;20195;-52
2023/01/13 09:14:55;;;;;;;5.93;3.03;;;18.50;50.50;;;;;;5057140;28;20179;-52
2023/01/13 09:17:22;;;;;;;6.68;3.47;;;18.50;50.50;;;;;;5056918;28;20211;-52
2023/01/13 09:19:49;;;;;;;5.15;3.08;;;18.60;53.50;;;;;;5056736;28;20241;-52
2023/01/13 09:22:20;;;;;;;6.50;3.28;;;18.60;53.10;;;;;;5055458;28;20199;-52
2023/01/13 09:24:46;;;;;;;4.38;3.28;;;18.60;53.50;;;;;;5055194;28;20232;-52
2023/01/13 09:27:15;;;;;;;4.88;3.10;;;18.60;52.90;;;;;;5056523;28;20207;-52
2023/01/13 09:29:42;;;;;;;4.38;2.88;;;18.60;52.90;;;;;;5055190;28;20293;-52
2023/01/13 09:32:11;;;;;;;4.03;2.60;;;18.60;52.70;;;;;;5055218;28;20202;-52
2023/01/13 09:37:24;;;;;;;4.90;3.03;;;18.60;52.10;;;;;;5056130;28;20236;-52
2023/01/13 09:39:51;;;;;;;4.47;2.60;;;18.60;51.80;;;;;;5055262;28;20200;-52
2023/01/13 09:45:07;;;;;;;3.58;2.75;;;18.60;51.50;;;;;;5056172;28;20168;-52
2023/01/13 09:47:37;;;;;;;2.92;2.58;;;18.60;51.10;;;;;;5054831;28;20215;-52
2023/01/13 09:50:15;;;;;;;5.13;2.90;;;18.60;50.80;;;;;;5056083;28;20191;-52
2023/01/13 09:52:43;;;;;;;3.17;2.40;;;18.60;50.80;;;;;;5056289;28;20183;-52
2023/01/13 09:55:14;;;;;;;5.05;3.00;;;18.60;50.60;;;;;;5054751;28;20199;-52
2023/01/13 09:57:41;;;;;;;3.90;2.55;;;18.60;50.50;;;;;;5054419;28;20307;-52
2023/01/13 10:00:12;;;;;;;5.43;2.88;;;18.60;50.30;;;;;;5056057;28;20278;-52
2023/01/13 10:03:05;;;;;;;5.03;2.97;;;18.60;50.20;;;;;;5056123;28;20729;-52
2023/01/13 10:05:37;;;;;;;3.78;2.50;;;18.60;50.10;;;;;;5056476;28;20543;-52
2023/01/13 10:08:07;;;;;;;3.13;2.33;;;18.60;50.10;;;;;;5056233;28;20278;-52
2023/01/13 10:10:37;;;;;;;2.40;2.20;;;18.60;50.00;;;;;;5055419;28;20186;-52
2023/01/13 10:13:13;;;;;;;2.70;2.03;;;18.60;50.10;;;;;;5056019;28;20662;-52
2023/01/13 10:15:42;;;;;;;4.25;2.50;;;18.60;50.00;;;;;;5055978;28;20614;-52
2023/01/13 10:18:13;;;;;;;2.95;2.33;;;18.60;50.00;;;;;;5054449;28;20215;-52
2023/01/13 10:20:45;;;;;;;2.92;2.10;;;18.60;50.00;;;;;;5056029;28;20267;-52
2023/01/13 10:23:33;;;;;;;3.40;2.25;;;18.60;50.00;;;;;;5082065;22;20231;-81
2023/01/13 10:26:03;;;;;;;3.67;2.40;;;18.60;49.80;;;;;;5056789;28;20640;-81
2023/01/13 10:28:31;;;;;;;2.88;2.22;;;18.40;49.70;;;;;;5058332;28;20171;-81
2023/01/13 10:30:58;;;;;;;4.30;2.40;;;18.60;49.90;;;;;;5057866;28;20196;-81
2023/01/13 10:33:27;;;;;;;3.60;2.03;;;18.60;49.90;;;;;;5057689;28;20249;-82
2023/01/13 10:35:59;;;;;;;3.03;2.47;;;18.60;49.90;;;;;;5056860;28;20215;-81
2023/01/13 10:38:29;;;;;;;2.63;2.30;;;18.60;49.90;;;;;;5056813;28;20224;-81
2023/01/13 10:40:57;;;;;;;2.92;2.28;;;18.60;49.80;;;;;;5058013;28;20565;-81
2023/01/13 10:43:24;;;;;;;2.45;2.13;;;18.70;50.00;;;;;;5056075;28;20214;-81
2023/01/13 10:45:56;;;;;;;3.30;2.28;;;18.70;49.80;;;;;;5056012;28;20219;-81
2023/01/13 10:48:25;;;;;;;2.35;2.10;;;18.80;49.50;;;;;;5056755;28;20295;-81
2023/01/13 10:50:51;;;;;;;3.15;2.20;;;18.90;49.30;;;;;;5057465;28;20192;-81
2023/01/13 10:53:22;;;;;;;2.35;2.03;;;19.00;49.30;;;;;;5057245;28;20215;-81
2023/01/13 10:56:00;;;;;;;2.80;2.08;;;19.00;49.10;;;;;;5057924;28;20226;-81
2023/01/13 10:58:28;;;;;;;2.47;2.28;;;19.00;48.80;;;;;;5057192;28;20215;-81
2023/01/13 11:00:59;;;;;;;2.58;2.00;;;19.00;49.40;;;;;;5056798;28;20271;-81
2023/01/13 11:03:29;;;;;;;2.70;2.10;;;19.00;48.80;;;;;;5062886;28;20199;-81
2023/01/13 11:05:57;;;;;;;2.38;1.90;;;19.00;48.80;;;;;;5062746;28;20231;-82
2023/01/13 11:08:27;;;;;;;2.20;2.00;;;19.00;48.70;;;;;;5059485;28;20200;-81
2023/01/13 11:10:55;;;;;;;2.45;2.10;;;19.00;48.80;;;;;;5060182;28;20246;-82
2023/01/13 11:13:29;;;;;;;2.97;2.00;;;19.10;48.80;;;;;;5058895;28;20645;-82
2023/01/13 11:15:59;;;;;;;2.08;1.85;;;19.10;48.90;;;;;;5059212;28;20716;-82
2023/01/13 11:18:31;;;;;;;3.65;1.92;;;19.10;48.80;;;;;;5058863;28;20706;-82
2023/01/13 11:20:58;;;;;;;2.75;2.13;;;19.10;48.80;;;;;;5038613;28;20303;-81
2023/01/13 11:23:31;;;;;;;2.72;1.92;;;19.00;48.80;;;;;;5054676;28;20218;-82
2023/01/13 11:26:01;;;;;;;2.40;1.90;;;19.00;48.90;;;;;;5054628;28;20214;-81
2023/01/13 11:28:38;;;;;;;2.00;1.80;;;19.00;49.00;;;;;;5054914;28;20199;-81
2023/01/13 11:31:11;;;;;;;2.92;2.03;;;19.00;48.80;;;;;;5054561;28;20210;-81
2023/01/13 11:33:40;;;;;;;2.92;2.00;;;18.90;48.80;;;;;;5054504;28;20206;-82
2023/01/13 11:36:11;;;;;;;2.13;1.90;;;19.00;48.70;;;;;;5054057;28;20237;-81
2023/01/13 11:38:44;;;;;;;2.33;2.10;;;19.00;48.90;;;;;;5059020;28;20238;-82
2023/01/13 11:41:17;;;;;;;2.55;2.00;;;18.90;48.70;;;;;;5058366;28;20207;-81
2023/01/13 11:43:47;;;;;;;3.20;2.10;;;18.90;48.70;;;;;;5056737;28;20199;-82
2023/01/13 11:46:14;;;;;;;2.95;1.70;;;19.00;48.90;;;;;;5054681;28;20212;-82
2023/01/13 11:48:42;;;;;;;2.42;1.73;;;19.00;49.40;;;;;;5054802;28;20191;-81
2023/01/13 11:51:14;;;;;;;1.63;1.48;;;19.00;48.50;;;;;;5054061;28;20215;-81
2023/01/13 11:53:56;;;;;;;1.90;1.80;;;19.00;48.60;;;;;;5053720;28;20565;-82
2023/01/13 11:56:34;;;;;;;2.20;1.80;;;19.00;48.40;;;;;;5054250;28;20591;-82
2023/01/13 11:59:14;;;;;;;2.40;1.83;;;19.00;48.30;;;;;;5054587;28;20627;-82
2023/01/13 12:01:57;;;;;;;1.60;1.50;;;19.00;48.50;;;;;;5055559;28;20187;-81
2023/01/13 12:04:26;;;;;;;2.00;1.65;;;19.00;49.00;;;;;;5056309;28;20273;-82
2023/01/13 12:06:59;;;;;;;2.22;1.70;;;19.00;48.40;;;;;;5055782;28;20200;-82
2023/01/13 12:09:31;;;;;;;1.70;1.60;;;19.00;48.30;;;;;;5055965;28;20629;-82
2023/01/13 12:12:26;;;;;;;1.95;1.48;;;19.00;48.40;;;;;;5056035;28;20223;-82
2023/01/13 12:15:14;;;;;;;2.60;1.65;;;19.00;48.30;;;;;;5055587;28;20223;-81
2023/01/13 12:17:46;;;;;;;1.88;1.67;;;19.00;48.20;;;;;;5026662;28;20553;-81
2023/01/13 12:20:20;;;;;;;1.88;1.65;;;19.10;48.20;;;;;;5055945;28;20207;-81
2023/01/13 12:22:47;;;;;;;2.00;1.60;;;19.00;48.10;;;;;;5055513;28;20368;-81
2023/01/13 12:25:18;;;;;;;2.10;1.67;;;19.10;48.10;;;;;;5055670;28;20698;-81
2023/01/13 12:27:46;;;;;;;2.45;1.70;;;19.10;48.30;;;;;;5055998;28;20195;-81
2023/01/13 12:30:21;;;;;;;1.92;1.52;;;19.10;48.10;;;;;;5054853;28;20573;-81
2023/01/13 12:32:48;;;;;;;2.35;1.70;;;19.10;48.20;;;;;;5054882;28;20260;-81
2023/01/13 12:35:28;;;;;;;1.92;1.52;;;19.10;48.20;;;;;;5056635;28;20695;-81
2023/01/13 12:37:58;;;;;;;1.70;1.60;;;19.00;48.30;;;;;;5055719;28;20222;-81
2023/01/13 12:40:34;;;;;;;2.30;1.60;;;19.10;48.80;;;;;;5055439;28;20693;-81
2023/01/13 12:45:52;;;;;;;2.35;1.45;;;19.20;48.10;;;;;;5055403;28;20243;-81
2023/01/13 12:48:45;;;;;;;2.00;1.77;;;19.10;48.10;;;;;;5053833;28;20199;-81
2023/01/13 12:51:22;;;;;;;2.10;1.80;;;19.20;48.10;;;;;;5037775;28;20199;-81
2023/01/13 12:53:49;;;;;;;1.60;1.35;;;19.20;48.70;;;;;;5054544;28;20214;-81
2023/01/13 12:56:38;;;;;;;1.70;1.52;;;19.20;48.30;;;;;;5054397;28;20269;-81
2023/01/13 12:59:47;;;;;;;2.25;1.60;;;19.10;48.00;;;;;;5053276;28;20211;-81
2023/01/13 13:02:28;;;;;;;1.73;1.60;;;19.20;47.70;;;;;;5052625;28;20188;-81
2023/01/13 13:04:55;;;;;;;2.13;1.50;;;19.20;47.80;;;;;;5053602;28;20223;-81
2023/01/13 13:07:26;;;;;;;1.83;1.30;;;19.20;47.80;;;;;;5052860;28;20202;-81
2023/01/13 13:09:55;;;;;;;1.85;1.50;;;19.20;48.10;;;;;;5052792;28;20255;-81
2023/01/13 13:15:33;;;;;;;1.48;1.30;;;19.20;47.50;;;;;;5052968;28;20219;-81
2023/01/13 13:18:07;;;;;;;3.00;1.65;;;19.30;47.60;;;;;;5052787;28;20219;-81
2023/01/13 13:20:57;;;;;;;1.77;1.52;;;19.30;47.60;;;;;;5053370;28;20195;-81
2023/01/13 13:23:29;;;;;;;2.28;1.60;;;19.30;47.50;;;;;;5052945;28;20575;-81
2023/01/13 13:26:00;;;;;;;2.42;1.42;;;19.30;47.20;;;;;;5054257;28;20223;-81
2023/01/13 13:28:27;;;;;;;2.33;1.65;;;19.30;47.10;;;;;;5051987;28;20654;-81
2023/01/13 13:31:08;;;;;;;2.65;1.73;;;19.30;47.10;;;;;;5056331;28;20204;-81
2023/01/13 13:33:45;;;;;;;2.75;1.80;;;19.40;47.90;;;;;;5057985;28;20195;-81
2023/01/13 13:36:33;;;;;;;2.13;1.52;;;19.30;47.70;;;;;;5058115;28;20218;-81
2023/01/13 13:47:35;;;;;;;2.00;1.60;;;19.30;47.50;;;;;;5058464;28;20183;-81
2023/01/13 13:50:11;;;;;;;2.72;1.50;;;19.40;47.50;;;;;;5058058;28;20203;-81